Las Vegas, Nevada
Traffic Map
Current Weather Conditions
Las Vegas, Nevada
Broken Clouds
Broken Clouds
14°
Feels Like: 14°
Wind Chill: 14° Ceiling: 25000
Heat Index: 14° Visibility: 10mi
Dew Point: -2° Wind: 0mph
Humidity: 33% Direction: ° ()
Pressure: 29.88in Gusts: 0mph
Raw Report DataKLAS 301056Z 00000KT 10SM BKN250 14/M02 A2988 RMK AO2 SLP102 T01441017
Traffic Incident Summary
Active as of:
Severity:
Category:
InformationThere was an issue retrieving the traffic information for this location. Please try a different location or try again shortly.
Advertisements
Track Severe Weather on mobile